createdAt,value
2023-02-22T00:04:39.845Z,17.70
2023-02-22T00:09:44.726Z,27.48
2023-02-22T00:14:51.287Z,16.02
2023-02-22T00:19:57.300Z,18.00
2023-02-22T00:25:01.847Z,19.63
2023-02-22T00:30:07.757Z,14.32
2023-02-22T00:35:14.231Z,13.13
2023-02-22T00:40:20.711Z,20.20
2023-02-22T00:45:27.406Z,22.13
2023-02-22T00:50:35.523Z,26.05
2023-02-22T00:55:40.308Z,21.02
2023-02-22T01:00:45.145Z,16.77
2023-02-22T01:05:53.073Z,12.00
2023-02-22T01:10:58.010Z,13.25
2023-02-22T01:16:03.825Z,16.63
2023-02-22T01:21:09.950Z,17.25
2023-02-22T01:26:14.645Z,16.27
2023-02-22T01:31:19.596Z,13.85
2023-02-22T01:36:25.905Z,12.73
2023-02-22T01:41:30.444Z,16.25
2023-02-22T01:46:36.571Z,13.77
2023-02-22T01:51:46.177Z,14.75
2023-02-22T01:56:55.809Z,21.95
2023-02-22T02:02:01.175Z,17.98
2023-02-22T02:07:09.661Z,15.82
2023-02-22T02:12:17.268Z,20.48
2023-02-22T02:17:25.187Z,17.38
2023-02-22T02:22:44.030Z,17.15
2023-02-22T02:28:11.485Z,17.25
2023-02-22T02:33:25.867Z,18.65
2023-02-22T02:38:35.753Z,15.55
2023-02-22T02:43:47.624Z,13.80
2023-02-22T02:48:58.816Z,15.15
2023-02-22T02:54:04.745Z,14.02
2023-02-22T02:59:27.169Z,14.60
2023-02-22T03:05:00.108Z,12.20
2023-02-22T03:10:18.787Z,13.15
2023-02-22T03:15:37.311Z,15.20
2023-02-22T03:20:51.683Z,15.10
2023-02-22T03:26:03.155Z,16.05
2023-02-22T03:31:14.230Z,15.43
2023-02-22T03:36:27.314Z,14.05
2023-02-22T03:41:33.470Z,13.38
2023-02-22T03:46:42.136Z,16.90
2023-02-22T03:51:49.636Z,17.90
2023-02-22T03:56:57.452Z,16.90
2023-02-22T04:02:02.319Z,20.00
2023-02-22T04:07:08.414Z,16.10
2023-02-22T04:12:13.447Z,12.88
2023-02-22T04:17:41.018Z,14.27
2023-02-22T04:22:50.968Z,13.25
2023-02-22T04:27:56.222Z,23.55
2023-02-22T04:33:12.168Z,14.77
2023-02-22T04:38:18.984Z,18.05
2023-02-22T04:43:24.220Z,12.40
2023-02-22T04:48:31.621Z,14.48
2023-02-22T04:53:38.248Z,15.07
2023-02-22T04:58:42.978Z,21.75
2023-02-22T05:03:47.629Z,21.50
2023-02-22T05:08:53.697Z,26.75
2023-02-22T05:13:58.297Z,25.08
2023-02-22T05:19:03.023Z,19.80
2023-02-22T05:24:09.331Z,27.65
2023-02-22T05:29:14.429Z,41.58
2023-02-22T05:34:19.261Z,28.05
2023-02-22T05:39:25.264Z,22.45
2023-02-22T05:44:30.006Z,14.45
2023-02-22T05:49:34.693Z,23.17
2023-02-22T05:54:40.883Z,23.17
2023-02-22T05:59:45.463Z,26.05
2023-02-22T06:04:50.146Z,23.67
2023-02-22T06:09:56.418Z,22.92
2023-02-22T06:15:00.940Z,21.75
2023-02-22T06:20:05.774Z,20.55
2023-02-22T06:25:15.377Z,59.17
2023-02-22T06:30:22.617Z,85.00
2023-02-22T06:35:27.857Z,40.78
2023-02-22T06:40:34.085Z,32.88
2023-02-22T06:45:38.984Z,29.05
2023-02-22T06:50:43.637Z,35.72
2023-02-22T06:55:49.797Z,37.47
2023-02-22T07:00:54.641Z,37.22
2023-02-22T07:05:59.614Z,34.17
2023-02-22T07:11:06.076Z,45.93
2023-02-22T07:16:10.862Z,30.00
2023-02-22T07:21:15.928Z,31.27
2023-02-22T07:26:23.359Z,26.80
2023-02-22T07:31:29.659Z,30.98
2023-02-22T07:36:34.739Z,22.23
2023-02-22T07:41:40.805Z,15.60
2023-02-22T07:46:59.162Z,26.52
2023-02-22T07:52:03.684Z,30.33
2023-02-22T07:57:09.928Z,13.50
2023-02-22T08:02:17.652Z,30.38
2023-02-22T08:07:22.348Z,14.63
2023-02-22T08:12:28.450Z,19.95
2023-02-22T08:17:33.204Z,12.93
2023-02-22T08:22:38.010Z,19.60
2023-02-22T08:27:44.344Z,15.75
2023-02-22T08:32:50.097Z,16.40
2023-02-22T08:37:57.811Z,17.13
2023-02-22T08:43:04.981Z,17.02
2023-02-22T08:48:10.145Z,18.55
2023-02-22T08:53:16.455Z,21.10
2023-02-22T08:58:22.682Z,15.70
2023-02-22T09:03:27.400Z,17.98
2023-02-22T09:08:32.041Z,27.40
2023-02-22T09:13:38.170Z,19.67
2023-02-22T09:18:44.451Z,19.63
2023-02-22T09:23:49.493Z,19.70
2023-02-22T09:28:55.507Z,18.20
2023-02-22T09:34:00.834Z,25.70
2023-02-22T09:39:06.319Z,25.95
2023-02-22T09:44:21.525Z,20.80
2023-02-22T09:49:31.471Z,18.80
2023-02-22T09:54:41.376Z,24.98
2023-02-22T09:59:55.119Z,26.10
2023-02-22T10:05:05.902Z,15.80
2023-02-22T10:10:18.846Z,15.52
2023-02-22T10:15:51.650Z,12.85
2023-02-22T10:21:04.264Z,22.50
2023-02-22T10:26:17.992Z,22.77
2023-02-22T10:31:30.016Z,18.15
2023-02-22T10:36:39.244Z,24.58
2023-02-22T10:41:50.820Z,20.90
2023-02-22T10:46:57.039Z,19.48
2023-02-22T10:52:03.618Z,15.82
2023-02-22T10:57:08.942Z,18.23
2023-02-22T11:02:21.220Z,20.90
2023-02-22T11:07:28.534Z,20.55
2023-02-22T11:12:34.844Z,16.55
2023-02-22T11:17:42.048Z,15.93
2023-02-22T11:22:46.827Z,14.05
2023-02-22T11:27:52.976Z,20.98
2023-02-22T11:33:01.047Z,16.75
2023-02-22T11:38:22.613Z,18.75
2023-02-22T11:43:30.186Z,16.42
2023-02-22T11:48:40.310Z,17.70
2023-02-22T11:54:25.738Z,21.13
2023-02-22T11:59:38.585Z,19.67
2023-02-22T12:05:11.015Z,17.88
2023-02-22T12:10:28.097Z,19.27
2023-02-22T12:15:40.149Z,11.05
2023-02-22T12:20:52.351Z,13.75
2023-02-22T12:26:01.689Z,10.30
2023-02-22T12:31:20.395Z,11.75
2023-02-22T12:36:33.737Z,15.95
2023-02-22T12:41:45.218Z,15.13
2023-02-22T12:46:53.662Z,14.60
2023-02-22T12:52:15.946Z,14.68
2023-02-22T12:57:42.962Z,13.00
2023-02-22T13:02:56.906Z,10.18
2023-02-22T13:08:22.773Z,11.65
2023-02-22T13:13:38.232Z,14.63
2023-02-22T13:18:50.035Z,8.68
2023-02-22T13:24:05.400Z,11.75
2023-02-22T13:29:15.140Z,14.20
2023-02-22T13:34:59.772Z,22.05
2023-02-22T13:40:39.941Z,16.33
2023-02-22T13:46:19.431Z,19.88
2023-02-22T13:51:43.213Z,14.30
2023-02-22T13:56:52.390Z,15.57
2023-02-22T14:01:58.200Z,15.18
2023-02-22T14:07:04.350Z,24.55
2023-02-22T14:12:10.607Z,18.90
2023-02-22T14:17:27.791Z,15.68
2023-02-22T14:22:32.930Z,13.82
2023-02-22T14:27:43.652Z,10.07
2023-02-22T14:32:49.394Z,14.65
2023-02-22T14:37:57.737Z,14.63
2023-02-22T14:43:07.879Z,12.50
2023-02-22T14:48:25.104Z,14.23
2023-02-22T14:53:39.607Z,12.35
2023-02-22T14:58:50.053Z,16.65
2023-02-22T15:04:07.364Z,24.05
2023-02-22T15:09:24.358Z,17.20
2023-02-22T15:14:37.735Z,15.20
2023-02-22T15:19:43.842Z,15.60
2023-02-22T15:25:00.133Z,16.90
2023-02-22T15:30:09.087Z,15.75
2023-02-22T15:35:15.446Z,19.45
2023-02-22T15:40:22.088Z,16.33
2023-02-22T15:45:29.105Z,19.85
2023-02-22T15:50:35.384Z,19.33
2023-02-22T15:55:50.599Z,22.60
2023-02-22T16:01:03.740Z,22.33
2023-02-22T16:06:12.755Z,15.27
2023-02-22T16:11:30.067Z,23.58
2023-02-22T16:16:41.817Z,25.08
2023-02-22T16:21:57.350Z,24.38
2023-02-22T16:27:08.420Z,27.43
2023-02-22T16:32:15.883Z,38.60
2023-02-22T16:37:24.565Z,26.83
2023-02-22T16:42:29.550Z,26.27
2023-02-22T16:47:35.676Z,30.27
2023-02-22T16:52:41.425Z,27.23
2023-02-22T16:57:46.245Z,33.03
2023-02-22T17:02:52.001Z,38.30
2023-02-22T17:13:16.106Z,38.28
2023-02-22T17:18:29.138Z,33.50
2023-02-22T17:23:33.860Z,47.22
2023-02-22T17:28:48.583Z,33.63
2023-02-22T17:33:57.737Z,46.30
2023-02-22T17:39:02.257Z,38.38
2023-02-22T17:44:07.103Z,30.67
2023-02-22T17:49:15.872Z,36.22
2023-02-22T17:54:20.723Z,37.20
2023-02-22T17:59:26.970Z,49.65
2023-02-22T18:04:34.831Z,40.42
2023-02-22T18:09:39.385Z,41.83
2023-02-22T18:14:43.919Z,37.22
2023-02-22T18:19:50.149Z,30.65
2023-02-22T18:24:58.415Z,19.50
2023-02-22T18:30:06.339Z,23.95
2023-02-22T18:35:12.318Z,14.20
2023-02-22T18:40:22.023Z,12.13
2023-02-22T18:45:32.118Z,12.68
2023-02-22T18:50:43.037Z,14.10
2023-02-22T18:55:51.198Z,14.55
2023-02-22T19:01:10.285Z,12.98
2023-02-22T19:06:18.897Z,17.38
2023-02-22T19:11:26.024Z,18.80
2023-02-22T19:16:34.764Z,29.05
2023-02-22T19:21:41.278Z,15.48
2023-02-22T19:26:50.885Z,14.20
2023-02-22T19:31:55.888Z,15.75
2023-02-22T19:44:37.730Z,18.38
2023-02-22T19:49:42.708Z,20.80
2023-02-22T19:54:47.306Z,16.40
2023-02-22T19:59:54.890Z,18.50
2023-02-22T20:04:59.743Z,16.70
2023-02-22T20:10:16.437Z,20.00
2023-02-22T20:15:24.137Z,27.67
2023-02-22T20:20:30.659Z,20.27
2023-02-22T20:25:35.958Z,22.45
2023-02-22T20:30:42.004Z,22.45
2023-02-22T20:35:46.960Z,24.33
2023-02-22T20:40:51.630Z,21.27
2023-02-22T20:45:57.618Z,17.42
2023-02-22T20:51:07.403Z,19.33
2023-02-22T20:56:14.768Z,17.45
2023-02-22T21:01:22.695Z,17.92
2023-02-22T21:06:27.489Z,13.85
2023-02-22T21:11:32.910Z,16.30
2023-02-22T21:16:39.169Z,15.95
2023-02-22T21:21:44.180Z,18.48
2023-02-22T21:26:49.074Z,15.83
2023-02-22T21:31:55.414Z,18.42
2023-02-22T21:37:00.024Z,19.25
2023-02-22T21:42:07.335Z,20.58
2023-02-22T21:47:13.466Z,18.52
2023-02-22T21:52:18.584Z,19.63
2023-02-22T21:57:23.106Z,20.88
2023-02-22T22:02:29.914Z,17.55
2023-02-22T22:07:34.698Z,20.70
2023-02-22T22:12:42.725Z,16.48
2023-02-22T22:17:48.856Z,14.68
2023-02-22T22:22:55.098Z,13.98
2023-02-22T22:28:09.615Z,14.70
2023-02-22T22:33:15.792Z,15.45
2023-02-22T22:38:20.856Z,14.45
2023-02-22T22:43:25.346Z,20.85
2023-02-22T22:48:36.115Z,17.08
2023-02-22T22:53:43.042Z,18.20
2023-02-22T22:58:50.273Z,16.92
2023-02-22T23:04:01.311Z,15.48
2023-02-22T23:09:11.745Z,17.38
2023-02-22T23:14:19.668Z,17.85
2023-02-22T23:19:25.451Z,17.27
2023-02-22T23:29:35.159Z,17.95
2023-02-22T23:34:41.896Z,17.67
2023-02-22T23:39:46.213Z,22.60
2023-02-22T23:44:53.044Z,17.85
2023-02-22T23:49:59.166Z,22.02
2023-02-22T23:55:05.595Z,25.80
